Time;durP1;ratioP1;P1;durP2;ratioP2;P2;SDS_P1;SDS_P2;PMS_P1;PMS_P2;Temp;Humidity;BMP_temperature;BMP_pressure;BME280_temperature;BME280_humidity;BME280_pressure;Samples;Min_cycle;Max_cycle;Signal;HPM_P1;HPM_P2
2022/07/07 00:00:18;;;;;;;10.50;2.00;;;15.00;99.90;;;;;;5129922;28;20451;-72
2022/07/07 00:02:45;;;;;;;10.43;1.80;;;14.90;99.90;;;;;;5131232;27;20991;-72
2022/07/07 00:05:12;;;;;;;9.10;1.40;;;14.90;1.00;;;;;;5133939;27;20443;-72
2022/07/07 00:07:39;;;;;;;9.00;1.60;;;14.80;1.00;;;;;;5128449;27;20451;-71
2022/07/07 00:10:06;;;;;;;9.13;1.57;;;14.90;1.00;;;;;;5134314;27;20450;-72
2022/07/07 00:12:33;;;;;;;9.20;1.30;;;15.10;1.00;;;;;;5146847;27;20453;-71
2022/07/07 00:15:00;;;;;;;9.67;1.40;;;15.00;1.00;;;;;;5134733;27;20446;-71
2022/07/07 00:17:28;;;;;;;8.70;1.70;;;14.90;1.00;;;;;;5134661;27;20970;-71
2022/07/07 00:19:55;;;;;;;9.00;1.53;;;14.80;1.00;;;;;;5134389;27;20453;-72
2022/07/07 00:22:22;;;;;;;10.57;1.60;;;14.80;1.00;;;;;;5134275;27;20533;-72
2022/07/07 00:24:49;;;;;;;8.63;1.57;;;14.70;1.00;;;;;;5134416;27;20493;-71
2022/07/07 00:27:16;;;;;;;8.67;1.67;;;14.80;1.00;;;;;;5133890;27;20448;-71
2022/07/07 00:29:43;;;;;;;7.97;1.27;;;14.80;1.00;;;;;;5134343;27;20886;-71
2022/07/07 00:32:10;;;;;;;8.70;1.70;;;14.80;1.00;;;;;;5134177;27;20811;-72
2022/07/07 00:34:39;;;;;;;9.03;1.70;;;14.80;1.00;;;;;;5134207;27;20478;-72
2022/07/07 00:37:05;;;;;;;8.57;1.53;;;15.00;1.00;;;;;;5133508;27;20445;-72
2022/07/07 00:39:32;;;;;;;8.47;1.40;;;15.20;1.00;;;;;;5134341;27;20542;-71
2022/07/07 00:41:59;;;;;;;9.40;1.80;;;15.30;1.00;;;;;;5133592;27;20456;-72
2022/07/07 00:44:26;;;;;;;10.43;1.40;;;15.40;99.90;;;;;;5134536;27;20478;-72
2022/07/07 00:46:54;;;;;;;8.70;1.70;;;15.30;99.90;;;;;;5134606;27;20533;-72
2022/07/07 00:49:22;;;;;;;8.47;1.40;;;15.10;99.90;;;;;;5133593;27;20534;-73
2022/07/07 00:51:50;;;;;;;10.60;1.57;;;15.30;99.90;;;;;;5134165;27;20951;-72
2022/07/07 00:54:17;;;;;;;8.23;1.20;;;15.30;99.90;;;;;;5133693;27;20800;-72
2022/07/07 00:56:44;;;;;;;10.57;1.43;;;15.20;99.90;;;;;;5133815;27;20451;-72
2022/07/07 00:59:13;;;;;;;9.00;1.53;;;15.40;99.90;;;;;;5133715;27;20439;-72
2022/07/07 01:01:42;;;;;;;8.20;1.50;;;15.50;99.90;;;;;;5133070;27;20460;-72
2022/07/07 01:04:11;;;;;;;9.50;1.57;;;15.40;99.90;;;;;;5125696;27;20828;-72
2022/07/07 01:06:37;;;;;;;8.93;1.60;;;15.40;99.90;;;;;;5133721;27;20449;-72
2022/07/07 01:09:06;;;;;;;8.50;1.40;;;15.30;99.90;;;;;;5133573;27;20443;-72
2022/07/07 01:11:48;;;;;;;8.40;1.30;;;15.10;99.90;;;;;;5138477;27;20457;-72
2022/07/07 01:14:15;;;;;;;8.60;1.77;;;15.00;1.00;;;;;;5132507;27;20770;-72
2022/07/07 01:16:42;;;;;;;8.10;1.10;;;14.90;1.00;;;;;;5132613;27;20473;-72
2022/07/07 01:19:09;;;;;;;9.87;1.30;;;14.90;1.00;;;;;;5132813;27;20447;-72
2022/07/07 01:21:51;;;;;;;8.17;1.30;;;14.80;1.00;;;;;;5133249;27;20954;-72
2022/07/07 01:24:20;;;;;;;10.70;1.30;;;14.80;1.00;;;;;;5133206;27;20473;-73
2022/07/07 01:26:47;;;;;;;8.13;1.23;;;14.70;1.00;;;;;;5133582;27;20810;-72
2022/07/07 01:29:14;;;;;;;9.17;1.10;;;14.70;1.00;;;;;;5132776;27;20485;-72
2022/07/07 01:31:40;;;;;;;8.33;1.40;;;14.70;1.00;;;;;;5133422;27;20458;-72
2022/07/07 01:34:07;;;;;;;10.50;1.57;;;14.90;1.00;;;;;;5132824;27;20470;-72
2022/07/07 01:36:34;;;;;;;8.10;1.50;;;14.80;1.00;;;;;;5128929;27;20455;-72
2022/07/07 01:39:01;;;;;;;8.47;1.80;;;15.00;1.00;;;;;;5133007;27;20445;-72
2022/07/07 01:41:29;;;;;;;8.47;1.50;;;15.00;1.00;;;;;;5132883;27;20443;-72
2022/07/07 01:43:56;;;;;;;8.47;1.50;;;15.10;1.00;;;;;;5132263;27;20482;-72
2022/07/07 01:46:23;;;;;;;8.33;1.77;;;15.10;1.00;;;;;;5133181;27;20534;-72
2022/07/07 01:48:50;;;;;;;8.17;1.27;;;15.10;1.00;;;;;;5132632;27;20452;-72
2022/07/07 01:51:16;;;;;;;8.70;1.60;;;14.90;1.00;;;;;;5131460;27;20455;-72
2022/07/07 01:53:44;;;;;;;8.00;1.50;;;14.80;1.00;;;;;;5132900;27;20558;-72
2022/07/07 01:56:10;;;;;;;7.70;1.30;;;14.80;1.00;;;;;;5132936;27;20443;-71
2022/07/07 01:58:38;;;;;;;7.50;1.37;;;14.80;1.00;;;;;;5131122;27;20597;-72
2022/07/07 02:01:05;;;;;;;8.20;1.60;;;15.10;1.00;;;;;;5131924;27;20446;-71
2022/07/07 02:03:32;;;;;;;7.60;1.40;;;15.10;1.00;;;;;;5132288;27;20931;-71
2022/07/07 02:05:59;;;;;;;6.97;1.20;;;14.90;1.00;;;;;;5132299;27;20442;-71
2022/07/07 02:08:26;;;;;;;7.60;1.50;;;14.80;1.00;;;;;;5132675;27;20455;-72
2022/07/07 02:13:39;;;;;;;9.97;1.97;;;14.90;1.00;;;;;;5121674;27;20993;-71
2022/07/07 02:16:06;;;;;;;8.27;1.40;;;15.10;1.00;;;;;;5132268;27;20465;-72
2022/07/07 02:18:35;;;;;;;7.30;1.40;;;15.00;1.00;;;;;;5132218;27;20454;-71
2022/07/07 02:21:02;;;;;;;7.20;1.37;;;14.90;1.00;;;;;;5128541;27;20932;-72
2022/07/07 02:23:29;;;;;;;7.20;1.20;;;14.90;1.00;;;;;;5132591;27;20576;-71
2022/07/07 02:25:56;;;;;;;7.50;1.73;;;14.90;1.00;;;;;;5132458;27;20447;-72
2022/07/07 02:28:23;;;;;;;7.07;1.23;;;14.90;1.00;;;;;;5132308;27;20447;-71
2022/07/07 02:30:52;;;;;;;8.33;1.87;;;14.70;1.00;;;;;;5131701;27;20443;-71
2022/07/07 02:33:20;;;;;;;7.80;1.40;;;14.70;45.30;;;;;;5122762;27;20474;-71
2022/07/07 02:35:47;;;;;;;7.60;1.37;;;14.60;99.90;;;;;;5133713;27;20540;-72
2022/07/07 02:38:14;;;;;;;8.00;1.57;;;14.70;99.90;;;;;;5131670;27;20439;-71
2022/07/07 02:40:41;;;;;;;8.17;1.10;;;14.80;99.90;;;;;;5132514;27;20443;-71
2022/07/07 02:43:12;;;;;;;7.53;1.43;;;14.90;1.00;;;;;;5141784;27;20842;-71
2022/07/07 02:45:39;;;;;;;7.30;1.50;;;15.00;30.30;;;;;;5132106;27;20473;-71
2022/07/07 02:48:08;;;;;;;7.10;1.20;;;14.90;1.00;;;;;;5131160;27;20534;-71
2022/07/07 02:50:35;;;;;;;8.50;1.50;;;14.90;1.00;;;;;;5131500;27;20447;-71
2022/07/07 02:53:02;;;;;;;7.40;1.37;;;14.90;1.00;;;;;;5134505;27;20801;-72
2022/07/07 02:55:30;;;;;;;7.17;1.40;;;14.90;1.00;;;;;;5135984;27;20461;-72
2022/07/07 02:57:57;;;;;;;12.07;1.67;;;14.90;1.00;;;;;;5133293;27;20534;-72
2022/07/07 03:00:25;;;;;;;6.97;1.10;;;15.00;1.00;;;;;;5132900;27;20811;-72
2022/07/07 03:02:52;;;;;;;8.23;1.60;;;15.20;1.00;;;;;;5133130;27;20547;-72
2022/07/07 03:05:20;;;;;;;8.23;1.50;;;15.20;1.00;;;;;;5131743;27;20478;-72
2022/07/07 03:07:47;;;;;;;7.80;1.70;;;15.10;1.00;;;;;;5131198;27;20888;-71
2022/07/07 03:10:14;;;;;;;7.37;1.40;;;14.90;1.00;;;;;;5130800;28;20442;-71
2022/07/07 03:12:41;;;;;;;9.07;1.33;;;15.00;1.00;;;;;;5134051;27;20456;-71
2022/07/07 03:15:09;;;;;;;8.00;1.70;;;15.10;1.00;;;;;;5131452;28;20458;-72
2022/07/07 03:17:36;;;;;;;7.77;1.50;;;15.00;1.00;;;;;;5131723;28;20461;-71
2022/07/07 03:20:04;;;;;;;8.20;1.23;;;15.00;1.00;;;;;;5130556;28;20867;-71
2022/07/07 03:22:32;;;;;;;7.27;1.30;;;14.90;1.00;;;;;;5131794;28;20461;-72
2022/07/07 03:24:59;;;;;;;7.53;1.97;;;14.90;1.00;;;;;;5130754;28;20558;-72
2022/07/07 03:27:26;;;;;;;7.30;1.43;;;14.90;1.00;;;;;;5131211;28;20531;-72
2022/07/07 03:29:53;;;;;;;9.33;1.57;;;14.90;1.00;;;;;;5131406;28;20439;-71
2022/07/07 03:32:19;;;;;;;8.87;1.70;;;14.90;1.00;;;;;;5131074;28;20458;-72
2022/07/07 03:34:46;;;;;;;7.80;1.43;;;15.00;1.00;;;;;;5131310;28;20482;-72
2022/07/07 03:37:13;;;;;;;7.40;1.40;;;15.00;1.00;;;;;;5131002;28;20967;-72
2022/07/07 03:39:42;;;;;;;8.00;1.57;;;15.00;1.00;;;;;;5133967;27;20453;-72
2022/07/07 03:42:09;;;;;;;7.60;1.57;;;15.00;1.00;;;;;;5134903;27;20447;-72
2022/07/07 03:44:35;;;;;;;7.40;1.30;;;15.10;1.00;;;;;;5134986;27;20506;-72
2022/07/07 03:47:03;;;;;;;7.30;1.70;;;15.20;1.00;;;;;;5135245;27;20772;-72
2022/07/07 03:49:30;;;;;;;8.37;1.37;;;15.20;1.00;;;;;;5135207;27;20446;-72
2022/07/07 03:51:57;;;;;;;9.50;1.40;;;15.20;1.00;;;;;;5134376;27;20453;-72
2022/07/07 03:54:26;;;;;;;8.10;1.70;;;15.20;1.00;;;;;;5135511;27;20457;-72
2022/07/07 03:56:55;;;;;;;6.97;1.20;;;15.20;1.00;;;;;;5135624;27;20445;-73
2022/07/07 03:59:21;;;;;;;7.03;1.07;;;15.30;1.00;;;;;;5134785;27;20446;-72
2022/07/07 04:01:48;;;;;;;8.60;1.30;;;15.20;1.00;;;;;;5134005;27;20912;-72
2022/07/07 04:04:16;;;;;;;7.90;1.70;;;15.30;1.00;;;;;;5134720;27;20733;-72
2022/07/07 04:06:43;;;;;;;7.43;1.40;;;15.30;1.00;;;;;;5135566;27;20497;-72
2022/07/07 04:09:10;;;;;;;7.63;1.40;;;15.40;1.00;;;;;;5134635;27;20465;-72
2022/07/07 04:11:37;;;;;;;8.00;1.60;;;15.40;1.00;;;;;;5140390;27;20456;-72
2022/07/07 04:14:05;;;;;;;7.60;1.30;;;15.40;1.00;;;;;;5134186;27;20446;-72
2022/07/07 04:16:33;;;;;;;7.50;1.20;;;15.50;1.00;;;;;;5121003;27;20462;-72
2022/07/07 04:18:59;;;;;;;7.17;1.30;;;15.60;99.90;;;;;;5133255;27;20801;-72
2022/07/07 04:21:26;;;;;;;8.47;1.47;;;15.60;99.90;;;;;;5127880;27;20445;-72
2022/07/07 04:23:54;;;;;;;7.67;1.30;;;15.70;99.90;;;;;;5134478;27;20985;-73
2022/07/07 04:26:20;;;;;;;7.33;1.10;;;15.80;99.90;;;;;;5124717;27;20478;-73
2022/07/07 04:28:47;;;;;;;8.10;1.20;;;15.80;99.90;;;;;;5134467;27;20535;-73
2022/07/07 04:31:15;;;;;;;7.83;1.17;;;15.80;99.90;;;;;;5133242;27;20443;-73
2022/07/07 04:33:42;;;;;;;7.77;1.40;;;15.90;99.90;;;;;;5134462;27;20472;-72
2022/07/07 04:36:11;;;;;;;7.83;1.23;;;15.90;99.90;;;;;;5134151;27;20465;-70
2022/07/07 04:38:38;;;;;;;8.50;1.40;;;16.00;99.90;;;;;;5134374;27;20448;-70
2022/07/07 04:41:05;;;;;;;10.00;1.87;;;16.10;99.90;;;;;;5133505;27;20447;-72
2022/07/07 04:43:31;;;;;;;8.80;1.33;;;16.20;99.90;;;;;;5134154;27;20934;-71
2022/07/07 04:45:58;;;;;;;8.00;1.30;;;16.20;99.90;;;;;;5133955;27;20486;-74
2022/07/07 04:48:27;;;;;;;9.17;1.80;;;16.20;99.90;;;;;;5138476;27;20443;-74
2022/07/07 04:50:54;;;;;;;8.53;1.20;;;16.20;99.90;;;;;;5133025;27;20516;-74
2022/07/07 04:53:21;;;;;;;9.17;1.63;;;16.10;99.90;;;;;;5134215;27;20453;-75
2022/07/07 04:55:48;;;;;;;8.40;1.33;;;16.20;99.90;;;;;;5134629;27;20446;-75
2022/07/07 04:58:15;;;;;;;9.47;1.93;;;16.20;99.90;;;;;;5132298;27;20789;-72
2022/07/07 05:00:42;;;;;;;8.50;1.47;;;16.10;99.90;;;;;;5133686;27;20443;-72
2022/07/07 05:03:09;;;;;;;8.30;1.30;;;16.10;99.90;;;;;;5133103;27;21055;-72
2022/07/07 05:05:37;;;;;;;8.30;1.23;;;16.00;99.90;;;;;;5133885;27;20472;-72
2022/07/07 05:08:04;;;;;;;8.20;1.10;;;16.10;99.90;;;;;;5133583;27;20444;-72
2022/07/07 05:10:31;;;;;;;11.70;1.60;;;16.20;99.90;;;;;;5133483;27;20447;-72
2022/07/07 05:12:58;;;;;;;9.80;1.60;;;16.20;99.90;;;;;;5146167;27;20456;-70
2022/07/07 05:15:25;;;;;;;8.70;1.30;;;16.20;99.90;;;;;;5134283;27;20447;-70
2022/07/07 05:17:52;;;;;;;8.77;2.00;;;16.30;99.90;;;;;;5134037;27;20552;-71
2022/07/07 05:20:18;;;;;;;8.30;1.30;;;16.30;99.90;;;;;;5132984;27;20455;-71
2022/07/07 05:22:47;;;;;;;8.30;1.50;;;16.20;99.90;;;;;;5133855;27;20869;-70
2022/07/07 05:25:13;;;;;;;8.33;1.40;;;16.30;99.90;;;;;;5133272;27;20806;-70
2022/07/07 05:27:40;;;;;;;8.50;1.50;;;16.30;99.90;;;;;;5133451;27;20562;-70
2022/07/07 05:30:08;;;;;;;8.50;1.50;;;16.30;99.90;;;;;;5132858;27;20450;-70
2022/07/07 05:32:35;;;;;;;8.73;1.10;;;16.40;99.90;;;;;;5133806;27;20547;-70
2022/07/07 05:35:02;;;;;;;8.07;1.30;;;16.30;99.90;;;;;;5133336;27;21014;-70
2022/07/07 05:37:29;;;;;;;8.27;1.27;;;16.40;99.90;;;;;;5133794;27;20453;-70
2022/07/07 05:39:57;;;;;;;8.60;1.73;;;16.40;99.90;;;;;;5132430;27;20787;-70
2022/07/07 05:42:24;;;;;;;8.40;1.23;;;16.40;99.90;;;;;;5133551;27;20854;-70
2022/07/07 05:44:50;;;;;;;8.43;1.20;;;16.60;99.90;;;;;;5133354;27;20990;-69
2022/07/07 05:47:17;;;;;;;9.03;1.63;;;16.60;99.90;;;;;;5132661;27;20450;-70
2022/07/07 05:49:44;;;;;;;9.47;1.20;;;16.70;99.90;;;;;;5132719;27;20447;-70
2022/07/07 05:52:11;;;;;;;8.87;1.53;;;16.80;99.90;;;;;;5132643;27;20866;-70
2022/07/07 05:54:38;;;;;;;8.53;1.47;;;16.80;99.90;;;;;;5133084;27;20479;-69
2022/07/07 05:57:07;;;;;;;8.07;1.17;;;;;;;;;;5132599;27;20451;-70
2022/07/07 05:59:34;;;;;;;8.43;1.80;;;17.00;99.90;;;;;;5132895;27;20446;-70
2022/07/07 06:02:01;;;;;;;8.60;1.30;;;17.30;99.90;;;;;;5131963;27;20551;-70
2022/07/07 06:04:28;;;;;;;10.40;1.60;;;17.50;99.90;;;;;;5132708;27;20904;-70
2022/07/07 06:06:55;;;;;;;8.40;1.40;;;17.70;99.90;;;;;;5132909;27;20488;-70
2022/07/07 06:09:23;;;;;;;10.30;1.30;;;17.80;99.90;;;;;;5132628;27;20450;-70
2022/07/07 06:11:50;;;;;;;10.23;1.67;;;17.90;99.90;;;;;;5140133;27;20508;-71
2022/07/07 06:14:18;;;;;;;9.03;1.17;;;;;;;;;;5137231;27;20457;-70
2022/07/07 06:16:45;;;;;;;11.00;1.00;;;;;;;;;;5132861;27;20511;-69
2022/07/07 06:19:14;;;;;;;9.30;1.43;;;;;;;;;;5131367;27;20451;-70
2022/07/07 06:21:42;;;;;;;9.63;1.37;;;;;;;;;;5132495;27;20443;-70
2022/07/07 06:24:09;;;;;;;8.77;1.17;;;;;;;;;;5131894;27;20447;-70
2022/07/07 06:26:37;;;;;;;10.23;1.33;;;;;;;;;;5132623;27;20478;-70
2022/07/07 06:29:04;;;;;;;10.00;1.53;;;;;;;;;;5131603;27;20459;-70
2022/07/07 06:31:33;;;;;;;9.73;1.10;;;;;;;;;;5132509;27;20461;-70
2022/07/07 06:34:00;;;;;;;8.90;1.30;;;;;;;;;;5131476;27;20474;-68
2022/07/07 06:36:28;;;;;;;8.87;1.13;;;;;;;;;;5132601;27;20447;-70
2022/07/07 06:38:55;;;;;;;10.77;1.50;;;;;;;;;;5131967;27;20996;-71
2022/07/07 06:41:22;;;;;;;8.80;1.20;;;18.10;99.90;;;;;;5132399;27;20941;-70
2022/07/07 06:43:50;;;;;;;9.03;1.40;;;19.10;99.90;;;;;;5132050;27;20447;-70
2022/07/07 06:46:17;;;;;;;9.03;1.30;;;19.30;99.90;;;;;;5131502;27;20479;-70
2022/07/07 06:48:45;;;;;;;9.60;1.40;;;19.40;99.90;;;;;;5131860;27;20988;-70
2022/07/07 06:51:12;;;;;;;10.13;1.30;;;19.40;99.90;;;;;;5131706;27;20477;-70
2022/07/07 06:53:39;;;;;;;11.63;1.73;;;19.30;99.90;;;;;;5132243;27;20777;-70
2022/07/07 06:56:06;;;;;;;10.40;1.40;;;19.40;99.90;;;;;;5131372;27;20538;-70
2022/07/07 06:58:33;;;;;;;10.20;1.47;;;19.30;99.90;;;;;;5131989;27;20527;-71
2022/07/07 07:01:00;;;;;;;12.17;1.30;;;19.40;99.90;;;;;;5131411;27;20455;-70
2022/07/07 07:03:27;;;;;;;10.27;1.53;;;19.50;99.90;;;;;;5131706;27;20460;-69
2022/07/07 07:05:55;;;;;;;9.70;1.10;;;19.70;99.90;;;;;;5132014;27;20474;-69
2022/07/07 07:08:22;;;;;;;10.97;1.20;;;;;;;;;;5131946;27;20455;-69
2022/07/07 07:10:49;;;;;;;9.83;1.27;;;;;;;;;;5131698;27;20449;-69
2022/07/07 07:13:16;;;;;;;12.57;1.43;;;;;;;;;;5143063;27;20451;-71
2022/07/07 07:15:44;;;;;;;10.70;1.70;;;;;;;;;;5132111;28;20538;-70
2022/07/07 07:18:11;;;;;;;10.47;1.60;;;;;;;;;;5131511;28;20450;-69
2022/07/07 07:20:40;;;;;;;10.30;1.30;;;;;;;;;;5131370;28;20807;-71
2022/07/07 07:23:08;;;;;;;10.20;1.30;;;;;;;;;;5131565;28;20447;-71
2022/07/07 07:25:36;;;;;;;10.50;1.50;;;;;;;;;;5131739;28;20561;-70
2022/07/07 07:28:03;;;;;;;10.90;1.30;;;;;;;;;;5131063;28;20878;-71
2022/07/07 07:30:30;;;;;;;11.63;1.17;;;;;;;;;;5131385;28;20449;-70
2022/07/07 07:32:57;;;;;;;12.00;1.60;;;;;;;;;;5131135;28;20794;-70
2022/07/07 07:35:24;;;;;;;12.03;1.73;;;;;;;;;;5131952;28;20451;-70
2022/07/07 07:37:51;;;;;;;12.50;1.33;;;;;;;;;;5132039;28;20453;-70
2022/07/07 07:40:20;;;;;;;10.60;1.40;;;;;;;;;;5130849;28;20486;-70
2022/07/07 07:42:47;;;;;;;10.80;1.53;;;;;;;;;;5131734;28;20447;-70
2022/07/07 07:45:14;;;;;;;10.40;1.50;;;;;;;;;;5131085;28;20845;-70
2022/07/07 07:47:42;;;;;;;11.50;1.80;;;;;;;;;;5132099;28;20447;-70
2022/07/07 07:50:11;;;;;;;10.80;1.50;;;;;;;;;;5130210;28;20443;-70
2022/07/07 07:52:39;;;;;;;12.00;1.70;;;;;;;;;;5131612;28;20447;-70
2022/07/07 07:55:07;;;;;;;10.80;1.37;;;;;;;;;;5131208;28;20442;-70
2022/07/07 07:57:35;;;;;;;10.80;1.40;;;;;;;;;;5131631;28;20449;-70
2022/07/07 08:00:03;;;;;;;11.47;2.07;;;;;;;;;;5130556;28;20449;-70
2022/07/07 08:02:30;;;;;;;13.73;1.60;;;;;;;;;;5131189;28;20455;-70
2022/07/07 08:04:57;;;;;;;11.00;1.40;;;;;;;;;;5130711;28;20482;-70
2022/07/07 08:07:24;;;;;;;11.27;1.40;;;;;;;;;;5131614;28;20490;-70
2022/07/07 08:09:52;;;;;;;12.00;1.50;;;;;;;;;;5131216;28;20771;-70
2022/07/07 08:12:19;;;;;;;11.07;1.60;;;;;;;;;;5142323;27;20457;-70
2022/07/07 08:14:47;;;;;;;10.77;1.33;;;;;;;;;;5131925;27;20455;-70
2022/07/07 08:17:15;;;;;;;10.50;1.70;;;;;;;;;;5131070;28;20450;-70
2022/07/07 08:19:42;;;;;;;10.80;1.40;;;;;;;;;;5130537;28;20438;-70
2022/07/07 08:22:10;;;;;;;10.30;1.50;;;;;;;;;;5131006;28;20807;-70
2022/07/07 08:24:37;;;;;;;12.63;1.70;;;;;;;;;;5118392;27;20537;-71
2022/07/07 08:27:05;;;;;;;11.20;1.60;;;19.80;99.90;;;;;;5134334;27;20482;-71
2022/07/07 08:29:32;;;;;;;11.40;1.60;;;20.30;99.90;;;;;;5134671;27;20495;-70
2022/07/07 08:32:00;;;;;;;11.00;1.67;;;20.20;99.90;;;;;;5134738;27;20469;-71
2022/07/07 08:34:27;;;;;;;10.20;1.40;;;20.10;99.90;;;;;;5135037;27;20561;-71
2022/07/07 08:36:54;;;;;;;11.03;2.13;;;20.30;99.90;;;;;;5135302;27;20525;-71
2022/07/07 08:39:21;;;;;;;13.10;1.67;;;20.20;99.90;;;;;;5135060;27;20942;-71
2022/07/07 08:41:47;;;;;;;11.30;1.67;;;20.40;99.90;;;;;;5134574;27;20449;-71
2022/07/07 08:44:16;;;;;;;10.40;1.67;;;20.40;99.90;;;;;;5134232;27;20447;-71
2022/07/07 08:46:43;;;;;;;14.47;1.93;;;20.30;99.90;;;;;;5134588;27;20478;-70
2022/07/07 08:49:11;;;;;;;10.60;1.90;;;20.30;99.90;;;;;;5133646;27;20450;-70
2022/07/07 08:51:41;;;;;;;11.67;1.80;;;20.20;99.90;;;;;;5134765;27;20454;-70
2022/07/07 08:54:10;;;;;;;10.50;1.90;;;20.30;99.90;;;;;;5133741;27;20922;-71
2022/07/07 08:56:38;;;;;;;10.73;2.07;;;20.40;99.90;;;;;;5134263;27;20952;-70
2022/07/07 08:59:05;;;;;;;10.80;2.03;;;20.40;99.90;;;;;;5133661;27;20479;-71
2022/07/07 09:01:32;;;;;;;14.20;2.80;;;20.20;99.90;;;;;;5134232;27;20525;-70
2022/07/07 09:03:59;;;;;;;10.93;2.80;;;20.40;99.90;;;;;;5133886;27;20527;-71
2022/07/07 09:06:28;;;;;;;10.10;2.67;;;20.40;99.90;;;;;;5134297;27;20502;-70
2022/07/07 09:08:55;;;;;;;11.63;2.23;;;20.50;99.90;;;;;;5134048;27;20527;-69
2022/07/07 09:11:25;;;;;;;13.73;2.63;;;20.50;99.90;;;;;;5137446;27;20533;-70
2022/07/07 09:13:53;;;;;;;9.33;2.00;;;20.60;99.90;;;;;;5143267;27;20490;-70
2022/07/07 09:16:20;;;;;;;9.37;1.70;;;;;;;;;;5133526;27;20852;-69
2022/07/07 09:18:48;;;;;;;10.00;2.27;;;;;;;;;;5133870;27;20447;-70
2022/07/07 09:21:30;;;;;;;10.43;1.67;;;;;;;;;;5133254;27;20821;-70
2022/07/07 09:23:59;;;;;;;10.60;1.90;;;;;;;;;;5130195;27;20459;-70
2022/07/07 09:26:39;;;;;;;10.27;1.97;;;;;;;;;;5134058;27;20493;-70
2022/07/07 09:29:07;;;;;;;9.50;1.60;;;;;;;;;;5132619;27;20439;-71
2022/07/07 09:31:57;;;;;;;12.13;1.80;;;;;;;;;;5133975;27;20455;-70
2022/07/07 09:34:25;;;;;;;10.90;1.80;;;;;;;;;;5133951;27;20483;-70
2022/07/07 09:39:54;;;;;;;9.30;1.30;;;20.70;99.90;;;;;;5049970;28;21080;-70
2022/07/07 09:42:22;;;;;;;9.00;1.40;;;20.40;99.90;;;;;;5050214;28;20443;-70
2022/07/07 09:44:51;;;;;;;10.33;1.50;;;20.30;99.90;;;;;;5088419;27;20457;-70
2022/07/07 09:47:20;;;;;;;9.00;1.40;;;20.00;99.90;;;;;;5133148;27;20477;-70
2022/07/07 09:50:01;;;;;;;9.00;1.23;;;19.80;99.90;;;;;;5141781;27;20941;-70
2022/07/07 09:52:29;;;;;;;10.63;1.80;;;19.70;99.90;;;;;;5134026;27;20553;-69
2022/07/07 09:54:58;;;;;;;8.60;1.53;;;19.60;99.90;;;;;;5132567;27;20449;-70
2022/07/07 09:57:26;;;;;;;8.80;1.30;;;19.60;99.90;;;;;;5133279;27;20522;-69
2022/07/07 09:59:54;;;;;;;10.47;1.50;;;19.60;99.90;;;;;;5132728;27;20461;-69
2022/07/07 10:02:22;;;;;;;7.97;1.10;;;20.00;99.90;;;;;;5133379;27;20466;-69
2022/07/07 10:04:51;;;;;;;8.43;1.30;;;20.20;99.90;;;;;;5133168;27;20475;-70
2022/07/07 10:07:20;;;;;;;8.53;1.30;;;20.50;99.90;;;;;;5132304;27;20486;-70
2022/07/07 10:09:50;;;;;;;8.30;1.30;;;20.60;99.90;;;;;;5132414;27;20497;-70
2022/07/07 10:12:21;;;;;;;8.80;1.50;;;20.80;99.90;;;;;;5143288;27;20446;-69
2022/07/07 10:14:50;;;;;;;12.63;1.53;;;21.10;99.90;;;;;;5133821;27;20435;-70
2022/07/07 10:17:17;;;;;;;9.00;1.53;;;21.00;99.90;;;;;;5132059;27;20449;-69
2022/07/07 10:19:44;;;;;;;9.43;1.30;;;21.20;99.90;;;;;;5132205;27;20797;-70
2022/07/07 10:22:12;;;;;;;9.00;1.17;;;21.20;99.90;;;;;;5132415;27;20450;-69
2022/07/07 10:24:40;;;;;;;9.00;1.43;;;21.20;99.90;;;;;;5132454;27;20474;-69
2022/07/07 10:27:07;;;;;;;9.53;1.40;;;21.50;99.90;;;;;;5131785;27;20483;-69
2022/07/07 10:29:40;;;;;;;9.70;1.60;;;21.50;99.90;;;;;;5132047;27;20505;-69
2022/07/07 10:32:09;;;;;;;8.73;1.30;;;21.40;99.90;;;;;;5132136;27;20509;-70
2022/07/07 10:34:38;;;;;;;9.50;1.70;;;21.10;99.90;;;;;;5132679;27;20574;-69
2022/07/07 10:37:07;;;;;;;9.70;1.60;;;21.00;99.90;;;;;;5131792;27;20479;-69
2022/07/07 10:39:46;;;;;;;9.17;1.70;;;20.70;99.90;;;;;;5132278;27;20447;-69
2022/07/07 10:43:00;;;;;;;13.60;1.83;;;20.70;99.90;;;;;;5132262;27;20533;-69
2022/07/07 10:45:29;;;;;;;9.47;1.60;;;21.00;99.90;;;;;;5132440;27;20458;-70
2022/07/07 10:47:56;;;;;;;9.00;1.60;;;21.10;99.90;;;;;;5131894;27;20487;-71
2022/07/07 10:50:29;;;;;;;10.70;1.47;;;21.30;99.90;;;;;;5131898;27;20457;-70
2022/07/07 10:52:56;;;;;;;9.63;1.63;;;21.20;99.90;;;;;;5131974;27;20466;-70
2022/07/07 10:55:52;;;;;;;10.43;1.57;;;21.00;99.90;;;;;;5132045;27;20486;-69
2022/07/07 10:58:51;;;;;;;9.20;1.33;;;20.80;99.90;;;;;;5131685;27;20455;-70
2022/07/07 11:01:20;;;;;;;9.70;1.57;;;20.90;99.90;;;;;;5131739;27;20781;-70
2022/07/07 11:03:47;;;;;;;9.50;1.70;;;20.90;99.90;;;;;;5132280;27;20442;-70
2022/07/07 11:06:14;;;;;;;8.70;1.20;;;20.90;99.90;;;;;;5131506;27;20564;-69
2022/07/07 11:08:41;;;;;;;9.90;1.90;;;20.90;99.90;;;;;;5131570;27;20443;-69
2022/07/07 11:11:08;;;;;;;11.17;1.63;;;20.70;99.90;;;;;;5131182;27;20443;-70
2022/07/07 11:13:36;;;;;;;8.70;1.30;;;20.60;99.90;;;;;;5132237;27;20443;-70
2022/07/07 11:16:15;;;;;;;9.00;1.40;;;20.70;99.90;;;;;;5131557;28;20792;-70
2022/07/07 11:18:47;;;;;;;8.90;1.70;;;20.50;99.90;;;;;;5131761;28;20450;-69
2022/07/07 11:21:14;;;;;;;8.67;1.20;;;20.60;99.90;;;;;;5131483;28;20447;-70
2022/07/07 11:23:50;;;;;;;9.00;1.47;;;20.50;99.90;;;;;;5131840;28;20542;-69
2022/07/07 11:26:20;;;;;;;9.77;1.50;;;20.70;99.90;;;;;;5131316;28;20810;-70
2022/07/07 11:28:47;;;;;;;9.10;1.40;;;20.70;99.90;;;;;;5131482;28;20857;-70
2022/07/07 11:31:14;;;;;;;9.40;1.50;;;20.70;99.90;;;;;;5131571;28;20487;-70
2022/07/07 11:33:42;;;;;;;9.20;1.60;;;20.70;99.90;;;;;;5131659;28;20480;-70
2022/07/07 11:36:15;;;;;;;8.83;1.33;;;20.90;99.90;;;;;;5131075;28;20451;-70
2022/07/07 11:38:44;;;;;;;8.93;1.50;;;20.90;99.90;;;;;;5131305;28;20454;-70
2022/07/07 11:41:11;;;;;;;8.67;1.30;;;21.10;99.90;;;;;;5131434;28;20449;-70
2022/07/07 11:43:38;;;;;;;8.63;1.30;;;21.20;99.90;;;;;;5131633;28;20948;-70
2022/07/07 11:46:05;;;;;;;9.10;1.20;;;21.20;99.90;;;;;;5131307;28;20469;-71
2022/07/07 11:48:41;;;;;;;9.07;1.40;;;21.10;99.90;;;;;;5131331;28;20485;-70
2022/07/07 11:51:09;;;;;;;9.07;1.27;;;21.00;99.90;;;;;;5131185;28;20450;-70
2022/07/07 11:53:36;;;;;;;9.20;1.37;;;20.90;99.90;;;;;;5131690;28;20533;-70
2022/07/07 11:56:04;;;;;;;11.10;1.60;;;20.70;99.90;;;;;;5131015;28;20529;-70
2022/07/07 11:58:31;;;;;;;8.87;1.53;;;20.60;99.90;;;;;;5130965;28;20450;-70
2022/07/07 12:00:58;;;;;;;8.70;1.30;;;20.80;99.90;;;;;;5134545;27;20449;-71
2022/07/07 12:03:33;;;;;;;9.50;1.60;;;20.80;99.90;;;;;;5135747;27;20442;-70
2022/07/07 12:06:02;;;;;;;9.60;1.50;;;20.90;99.90;;;;;;5134828;27;20530;-70
2022/07/07 12:08:35;;;;;;;9.17;1.50;;;21.00;99.90;;;;;;5134813;27;20474;-70
2022/07/07 12:11:02;;;;;;;11.10;1.63;;;20.90;99.90;;;;;;5135221;27;20439;-70
2022/07/07 12:13:29;;;;;;;11.60;1.50;;;20.80;99.90;;;;;;5147194;27;20925;-69
2022/07/07 12:15:57;;;;;;;8.97;1.50;;;20.70;99.90;;;;;;5134605;27;20458;-71
2022/07/07 12:18:33;;;;;;;10.20;1.47;;;20.80;99.90;;;;;;5135168;27;20474;-70
2022/07/07 12:21:02;;;;;;;10.60;1.63;;;21.00;99.90;;;;;;5134638;27;20921;-70
2022/07/07 12:23:29;;;;;;;11.63;1.60;;;21.10;99.90;;;;;;5135242;27;20442;-70
2022/07/07 12:26:09;;;;;;;8.93;1.50;;;21.10;99.90;;;;;;5134871;27;20511;-70
2022/07/07 12:28:37;;;;;;;9.63;1.57;;;21.20;99.90;;;;;;5127127;27;20474;-70
2022/07/07 12:31:05;;;;;;;11.93;1.40;;;21.20;99.90;;;;;;5134180;27;20984;-70
2022/07/07 12:33:34;;;;;;;9.27;1.47;;;21.20;99.90;;;;;;5134817;27;20470;-70
2022/07/07 12:36:09;;;;;;;10.07;1.73;;;21.10;99.90;;;;;;5120258;27;20526;-70
2022/07/07 12:38:37;;;;;;;9.93;1.77;;;21.20;99.90;;;;;;5134669;27;20435;-70
2022/07/07 12:41:04;;;;;;;9.00;1.63;;;21.20;99.90;;;;;;5134523;27;20451;-70
2022/07/07 12:43:34;;;;;;;8.97;1.60;;;21.10;99.90;;;;;;5134490;27;20443;-70
2022/07/07 12:46:11;;;;;;;9.13;1.60;;;21.00;99.90;;;;;;5134378;27;20505;-71
2022/07/07 12:48:47;;;;;;;10.30;2.10;;;21.00;99.90;;;;;;5134386;27;20524;-71
2022/07/07 12:51:14;;;;;;;12.17;1.63;;;20.90;99.90;;;;;;5134060;27;20472;-69
2022/07/07 12:53:43;;;;;;;10.80;1.53;;;20.90;99.90;;;;;;5134918;27;20545;-70
2022/07/07 12:56:12;;;;;;;9.13;1.57;;;20.70;99.90;;;;;;5134102;27;20459;-70
2022/07/07 12:58:46;;;;;;;10.00;1.70;;;20.50;99.90;;;;;;5133861;27;20451;-70
2022/07/07 13:01:17;;;;;;;9.20;1.80;;;20.40;99.90;;;;;;5133911;27;20492;-70
2022/07/07 13:03:46;;;;;;;9.57;1.50;;;20.40;99.90;;;;;;5134218;27;20534;-70
2022/07/07 13:06:13;;;;;;;8.57;1.50;;;20.40;99.90;;;;;;5133654;27;20805;-70
2022/07/07 13:08:41;;;;;;;9.50;1.87;;;20.70;99.90;;;;;;5133900;27;20489;-70
2022/07/07 13:11:09;;;;;;;9.07;1.90;;;21.00;99.90;;;;;;5133487;27;20451;-71
2022/07/07 13:13:36;;;;;;;8.40;1.37;;;21.20;99.90;;;;;;5145509;27;20542;-71